Time;durP1;ratioP1;P1;durP2;ratioP2;P2;SDS_P1;SDS_P2;PMS_P1;PMS_P2;Temp;Humidity;BMP_temperature;BMP_pressure;BME280_temperature;BME280_humidity;BME280_pressure;Samples;Min_cycle;Max_cycle;Signal;HPM_P1;HPM_P2
2022/09/14 00:01:31;;;;;;;5.60;4.03;;;20.60;99.90;;;;;;4991090;28;20595;-74
2022/09/14 00:04:00;;;;;;;4.20;3.70;;;20.60;99.90;;;;;;4991639;28;20681;-74
2022/09/14 00:06:28;;;;;;;4.97;4.17;;;20.60;99.90;;;;;;4991601;28;20574;-74
2022/09/14 00:08:56;;;;;;;4.83;4.27;;;20.60;99.90;;;;;;4991745;28;20921;-74
2022/09/14 00:11:25;;;;;;;5.57;4.10;;;20.60;99.90;;;;;;4994733;28;20609;-74
2022/09/14 00:13:51;;;;;;;5.77;5.17;;;20.60;99.90;;;;;;4990790;28;20609;-74
2022/09/14 00:16:30;;;;;;;6.20;5.53;;;20.60;99.90;;;;;;4993659;28;20913;-73
2022/09/14 00:19:05;;;;;;;6.43;5.70;;;20.60;99.90;;;;;;4995026;28;20624;-74
2022/09/14 00:21:36;;;;;;;8.70;5.80;;;20.60;99.90;;;;;;4990261;28;20685;-73
2022/09/14 00:24:03;;;;;;;6.53;5.90;;;20.60;99.90;;;;;;4991261;28;21193;-74
2022/09/14 00:26:29;;;;;;;7.70;7.00;;;20.50;99.90;;;;;;4994913;28;20572;-74
2022/09/14 00:28:56;;;;;;;7.13;6.50;;;20.60;99.90;;;;;;4994919;28;20996;-74
2022/09/14 00:31:23;;;;;;;9.23;7.10;;;20.50;99.90;;;;;;5009389;23;20721;-74
2022/09/14 00:33:50;;;;;;;9.33;7.70;;;20.50;99.90;;;;;;4949491;28;20595;-74
2022/09/14 00:36:27;;;;;;;8.10;7.30;;;20.60;99.90;;;;;;4943658;29;20638;-74
2022/09/14 00:38:55;;;;;;;9.57;7.83;;;20.60;99.90;;;;;;4938545;29;20631;-74
2022/09/14 00:41:27;;;;;;;8.87;8.00;;;20.60;99.90;;;;;;4929614;29;20627;-74
2022/09/14 00:44:00;;;;;;;9.50;7.80;;;20.60;99.90;;;;;;4903927;29;20934;-74
2022/09/14 00:46:29;;;;;;;9.73;8.73;;;20.60;99.90;;;;;;4936538;29;20573;-74
2022/09/14 00:48:59;;;;;;;9.40;8.20;;;20.60;99.90;;;;;;4936682;29;20573;-74
2022/09/14 00:51:28;;;;;;;10.00;8.23;;;20.70;99.90;;;;;;4934959;29;20617;-74
2022/09/14 00:53:54;;;;;;;10.50;9.40;;;20.70;99.90;;;;;;4936404;29;20569;-74
2022/09/14 00:56:20;;;;;;;8.67;7.83;;;20.70;99.90;;;;;;4903601;29;20988;-74
2022/09/14 00:58:49;;;;;;;11.00;9.57;;;20.70;99.90;;;;;;4919337;29;20655;-74
2022/09/14 01:01:15;;;;;;;10.60;9.03;;;20.70;99.90;;;;;;4918799;29;20554;-74
2022/09/14 01:03:41;;;;;;;9.77;8.77;;;20.70;99.90;;;;;;4919359;29;20573;-74
2022/09/14 01:06:12;;;;;;;7.80;7.10;;;20.80;99.90;;;;;;4918986;29;20576;-74
2022/09/14 01:08:44;;;;;;;9.57;8.30;;;20.80;99.90;;;;;;4918985;29;20169;-74
2022/09/14 01:11:14;;;;;;;9.10;8.13;;;20.80;99.90;;;;;;4918699;29;20644;-74
2022/09/14 01:14:12;;;;;;;10.17;8.87;;;20.80;99.90;;;;;;4936303;29;21122;-74
2022/09/14 01:16:53;;;;;;;12.47;8.77;;;20.80;99.90;;;;;;4919021;29;20623;-74
2022/09/14 01:19:56;;;;;;;10.10;9.10;;;20.80;99.90;;;;;;4934744;29;20585;-74
2022/09/14 01:22:35;;;;;;;9.27;8.40;;;20.80;99.90;;;;;;4903061;29;20968;-74
2022/09/14 01:25:26;;;;;;;11.90;9.17;;;20.80;99.90;;;;;;4887682;29;20565;-74
2022/09/14 01:27:55;;;;;;;10.70;9.60;;;20.80;99.90;;;;;;4877311;29;20593;-74
2022/09/14 01:30:22;;;;;;;11.87;10.47;;;20.90;99.90;;;;;;4935513;29;20569;-74
2022/09/14 01:32:54;;;;;;;13.20;11.47;;;20.90;99.90;;;;;;4902977;29;20944;-75
2022/09/14 01:35:36;;;;;;;12.50;11.20;;;20.80;99.90;;;;;;4936094;29;20600;-74
2022/09/14 01:38:23;;;;;;;12.87;11.57;;;20.90;99.90;;;;;;4903107;29;20683;-74
2022/09/14 01:40:49;;;;;;;11.83;10.63;;;20.90;99.90;;;;;;4935386;29;21209;-74
2022/09/14 01:43:24;;;;;;;12.80;10.80;;;20.90;99.90;;;;;;4902886;29;20592;-74
2022/09/14 01:45:53;;;;;;;12.40;11.10;;;20.90;99.90;;;;;;4918493;29;20751;-74
2022/09/14 01:48:26;;;;;;;14.10;12.70;;;20.90;99.90;;;;;;4935517;29;20584;-74
2022/09/14 01:50:56;;;;;;;12.90;10.10;;;20.90;99.90;;;;;;4918009;29;21300;-74
2022/09/14 01:53:33;;;;;;;13.33;11.90;;;20.90;99.90;;;;;;4935416;29;20708;-74
2022/09/14 01:56:14;;;;;;;15.87;13.30;;;20.90;99.90;;;;;;4935419;29;21126;-74
2022/09/14 01:58:45;;;;;;;14.23;12.73;;;20.90;99.90;;;;;;4918148;29;20631;-74
2022/09/14 02:01:17;;;;;;;14.77;12.37;;;20.90;99.90;;;;;;4917710;29;20613;-74
2022/09/14 02:03:48;;;;;;;16.67;14.10;;;20.90;99.90;;;;;;4918391;29;20572;-76
2022/09/14 02:06:37;;;;;;;16.87;15.07;;;20.90;99.90;;;;;;4918019;29;20736;-74
2022/09/14 02:09:06;;;;;;;18.07;14.10;;;20.90;99.90;;;;;;4886817;29;20581;-74
2022/09/14 02:11:32;;;;;;;17.50;13.33;;;20.90;99.90;;;;;;4917674;29;20604;-73
2022/09/14 02:13:58;;;;;;;16.17;13.90;;;20.90;99.90;;;;;;4918051;29;20724;-74
2022/09/14 02:16:24;;;;;;;14.37;12.93;;;20.80;99.90;;;;;;4902386;29;20577;-74
2022/09/14 02:18:50;;;;;;;16.30;14.23;;;20.80;99.90;;;;;;4917814;29;20638;-73
2022/09/14 02:21:21;;;;;;;15.23;13.57;;;20.80;99.90;;;;;;4917413;29;20593;-73
2022/09/14 02:23:50;;;;;;;15.67;13.00;;;20.70;99.90;;;;;;4886419;29;20932;-73
2022/09/14 02:26:18;;;;;;;14.90;13.37;;;20.70;99.90;;;;;;4933585;29;20608;-73
2022/09/14 02:28:44;;;;;;;16.67;14.07;;;20.70;99.90;;;;;;4917795;29;20584;-73
2022/09/14 02:31:28;;;;;;;16.53;14.70;;;20.70;99.90;;;;;;4917225;29;20608;-73
2022/09/14 02:34:42;;;;;;;15.27;12.70;;;20.70;99.90;;;;;;4901657;29;20581;-72
2022/09/14 02:37:18;;;;;;;13.93;11.17;;;20.70;99.90;;;;;;4850179;29;20589;-73
2022/09/14 02:40:03;;;;;;;15.10;12.93;;;20.70;99.90;;;;;;4917527;29;20665;-73
2022/09/14 02:42:59;;;;;;;14.77;13.30;;;20.70;99.90;;;;;;4934610;29;20652;-73
2022/09/14 02:45:38;;;;;;;14.73;13.33;;;20.70;99.90;;;;;;4917583;29;21006;-73
2022/09/14 02:48:04;;;;;;;12.53;11.33;;;20.70;99.90;;;;;;4933454;29;20931;-72
2022/09/14 02:50:41;;;;;;;16.30;13.93;;;20.70;99.90;;;;;;4932932;29;20611;-73
2022/09/14 02:53:20;;;;;;;13.73;11.97;;;20.70;99.90;;;;;;4917456;29;20247;-72
2022/09/14 02:56:00;;;;;;;14.93;13.47;;;20.70;99.90;;;;;;4933197;29;20603;-72
2022/09/14 02:58:39;;;;;;;13.23;11.90;;;20.70;99.90;;;;;;4917205;29;20677;-72
2022/09/14 03:01:07;;;;;;;14.30;12.90;;;20.70;99.90;;;;;;4901190;29;20639;-72
2022/09/14 03:03:33;;;;;;;16.10;14.50;;;20.70;99.90;;;;;;4932892;29;20718;-72
2022/09/14 03:05:59;;;;;;;13.43;12.13;;;20.70;99.90;;;;;;4917171;29;20582;-72
2022/09/14 03:08:25;;;;;;;14.20;12.70;;;20.70;99.90;;;;;;4934205;29;20176;-73
2022/09/14 03:10:51;;;;;;;14.13;12.73;;;20.70;99.90;;;;;;4933821;29;20589;-73
2022/09/14 03:13:17;;;;;;;15.33;13.70;;;20.70;99.90;;;;;;4932759;29;21115;-73
2022/09/14 03:15:43;;;;;;;16.03;12.90;;;20.70;99.90;;;;;;4932933;29;20581;-72
2022/09/14 03:18:09;;;;;;;13.13;11.77;;;20.70;99.90;;;;;;4932879;29;20204;-73
2022/09/14 03:20:35;;;;;;;13.87;12.47;;;20.70;99.90;;;;;;4901084;29;20177;-72
2022/09/14 03:23:02;;;;;;;14.50;13.00;;;20.70;99.90;;;;;;4933923;29;21104;-72
2022/09/14 03:25:29;;;;;;;16.50;14.73;;;20.70;99.90;;;;;;4917101;29;20581;-72
2022/09/14 03:27:58;;;;;;;16.03;14.40;;;20.70;99.90;;;;;;4934221;29;21134;-73
2022/09/14 03:30:25;;;;;;;15.97;14.27;;;20.70;99.90;;;;;;4916491;29;20573;-73
2022/09/14 03:32:50;;;;;;;16.30;14.57;;;20.70;99.90;;;;;;4933790;29;20719;-72
2022/09/14 03:35:17;;;;;;;14.53;13.03;;;20.70;99.90;;;;;;4933882;29;20661;-72
2022/09/14 03:37:44;;;;;;;16.13;14.43;;;20.70;99.90;;;;;;4916894;29;20243;-72
2022/09/14 03:40:12;;;;;;;15.70;14.10;;;20.70;99.90;;;;;;4933822;29;20589;-72
2022/09/14 03:42:46;;;;;;;16.10;14.40;;;20.80;99.90;;;;;;4933839;29;20589;-73
2022/09/14 03:45:13;;;;;;;16.70;15.10;;;20.70;99.90;;;;;;4934788;29;20577;-73
2022/09/14 03:47:39;;;;;;;15.70;14.00;;;20.80;99.90;;;;;;4920671;29;20577;-73
2022/09/14 03:50:06;;;;;;;15.60;13.90;;;20.70;99.90;;;;;;4920271;29;20573;-74
2022/09/14 03:52:33;;;;;;;18.43;14.77;;;20.80;99.90;;;;;;4920421;29;20601;-74
2022/09/14 03:54:59;;;;;;;16.10;14.40;;;20.80;99.90;;;;;;4937504;29;20569;-74
2022/09/14 03:57:25;;;;;;;16.90;15.10;;;20.80;99.90;;;;;;4937507;29;21030;-74
2022/09/14 03:59:52;;;;;;;17.27;15.47;;;20.80;99.90;;;;;;4920225;29;20184;-74
2022/09/14 04:02:18;;;;;;;18.17;15.07;;;20.80;99.90;;;;;;4936196;29;20604;-74
2022/09/14 04:04:47;;;;;;;16.10;12.90;;;20.80;99.90;;;;;;4937541;29;20573;-74
2022/09/14 04:07:14;;;;;;;15.43;13.07;;;20.80;99.90;;;;;;4904724;29;20731;-73
2022/09/14 04:09:41;;;;;;;14.80;13.20;;;20.80;99.90;;;;;;4937234;29;20667;-73
2022/09/14 04:12:07;;;;;;;13.43;12.03;;;20.80;99.90;;;;;;4937093;29;20688;-73
2022/09/14 04:14:32;;;;;;;17.90;15.57;;;20.80;99.90;;;;;;4937392;29;20577;-72
2022/09/14 04:16:59;;;;;;;19.47;15.20;;;20.80;99.90;;;;;;4935977;29;20565;-73
2022/09/14 04:19:24;;;;;;;18.67;15.87;;;20.80;99.90;;;;;;4904143;29;21020;-72
2022/09/14 04:21:50;;;;;;;17.07;15.17;;;20.80;99.90;;;;;;4937086;29;20208;-73
2022/09/14 04:24:16;;;;;;;17.20;14.80;;;20.80;99.90;;;;;;4937133;29;20176;-73
2022/09/14 04:26:44;;;;;;;14.53;13.03;;;20.80;99.90;;;;;;4920085;29;20534;-72
2022/09/14 04:29:10;;;;;;;10.50;9.50;;;20.80;99.90;;;;;;4904378;29;20592;-73
2022/09/14 04:31:35;;;;;;;10.23;9.10;;;20.80;99.90;;;;;;4919570;29;21008;-73
2022/09/14 04:34:01;;;;;;;8.93;8.10;;;20.70;99.90;;;;;;4935815;29;20668;-73
2022/09/14 04:36:29;;;;;;;10.63;9.63;;;20.70;99.90;;;;;;4937055;29;20256;-73
2022/09/14 04:39:00;;;;;;;9.37;8.43;;;20.70;99.90;;;;;;4904026;29;20200;-73
2022/09/14 04:41:28;;;;;;;8.77;7.87;;;20.60;99.90;;;;;;4936256;29;20648;-72
2022/09/14 04:43:55;;;;;;;9.53;8.70;;;20.60;99.90;;;;;;4936577;29;20569;-73
2022/09/14 04:46:25;;;;;;;9.30;8.40;;;20.60;99.90;;;;;;4919557;29;20600;-72
2022/09/14 04:48:51;;;;;;;9.33;8.53;;;20.50;99.90;;;;;;4919448;29;20579;-72
2022/09/14 04:51:26;;;;;;;9.33;8.37;;;20.50;99.90;;;;;;4934787;29;20700;-72
2022/09/14 04:53:55;;;;;;;9.40;8.50;;;20.50;99.90;;;;;;4919332;29;20275;-72
2022/09/14 04:56:22;;;;;;;7.30;6.60;;;20.40;99.90;;;;;;4919098;29;20576;-72
2022/09/14 04:58:52;;;;;;;9.13;8.33;;;20.40;99.90;;;;;;4887793;29;20719;-73
2022/09/14 05:01:21;;;;;;;10.10;9.10;;;20.30;99.90;;;;;;4918961;29;20704;-73
2022/09/14 05:03:47;;;;;;;10.67;8.20;;;20.30;99.90;;;;;;4919332;29;20723;-73
2022/09/14 05:06:22;;;;;;;8.47;7.57;;;20.30;99.90;;;;;;4934931;29;20738;-73
2022/09/14 05:08:49;;;;;;;9.97;8.20;;;20.30;99.90;;;;;;4887767;29;20576;-73
2022/09/14 05:11:17;;;;;;;8.80;8.00;;;20.30;99.90;;;;;;4918655;29;21035;-73
2022/09/14 05:13:43;;;;;;;9.23;8.33;;;20.20;99.90;;;;;;4936172;29;20565;-73
2022/09/14 05:16:17;;;;;;;9.40;8.50;;;20.20;99.90;;;;;;4919062;29;20572;-73
2022/09/14 05:18:43;;;;;;;7.93;7.23;;;20.20;99.90;;;;;;4934613;29;20683;-73
2022/09/14 05:21:12;;;;;;;7.53;6.83;;;20.20;99.90;;;;;;4918527;29;20704;-73
2022/09/14 05:23:38;;;;;;;8.73;7.83;;;20.20;99.90;;;;;;4918903;29;20623;-74
2022/09/14 05:26:05;;;;;;;8.63;7.43;;;20.20;99.90;;;;;;4934879;29;20565;-74
2022/09/14 05:28:31;;;;;;;6.30;5.70;;;20.20;99.90;;;;;;4903303;29;20679;-73
2022/09/14 05:30:57;;;;;;;8.17;7.37;;;20.20;99.90;;;;;;4918518;29;20624;-73
2022/09/14 05:33:23;;;;;;;7.43;6.70;;;20.20;99.90;;;;;;4918750;29;20923;-73
2022/09/14 05:35:50;;;;;;;9.10;6.10;;;20.20;99.90;;;;;;4918741;29;20259;-74
2022/09/14 05:38:16;;;;;;;8.23;6.70;;;20.20;99.90;;;;;;4935588;29;20628;-74
2022/09/14 05:40:42;;;;;;;8.40;7.60;;;20.20;99.90;;;;;;4934174;29;20597;-74
2022/09/14 05:43:07;;;;;;;8.27;6.70;;;20.20;99.90;;;;;;4943068;28;20592;-73
2022/09/14 05:45:34;;;;;;;6.90;6.20;;;20.20;99.90;;;;;;4955014;29;20564;-74
2022/09/14 05:48:03;;;;;;;8.10;7.07;;;20.20;99.90;;;;;;4953520;29;20176;-74
2022/09/14 05:50:32;;;;;;;7.67;6.93;;;20.20;99.90;;;;;;4953331;29;20604;-74
2022/09/14 05:52:59;;;;;;;8.63;7.60;;;20.20;99.90;;;;;;4953106;29;20675;-74
2022/09/14 05:55:25;;;;;;;7.60;6.90;;;20.20;99.90;;;;;;4953324;29;20564;-74
2022/09/14 05:57:51;;;;;;;6.90;6.30;;;20.20;99.90;;;;;;4937650;29;20682;-75
2022/09/14 06:00:17;;;;;;;7.97;7.13;;;20.20;99.90;;;;;;4953021;29;20584;-74
2022/09/14 06:02:47;;;;;;;7.20;6.50;;;20.20;99.90;;;;;;4943000;29;20207;-75
2022/09/14 06:05:14;;;;;;;6.87;6.20;;;20.20;99.90;;;;;;4921445;29;20580;-75
2022/09/14 06:07:41;;;;;;;7.23;6.53;;;20.20;99.90;;;;;;4917511;29;20600;-75
2022/09/14 06:10:07;;;;;;;6.40;5.73;;;20.20;99.90;;;;;;4918026;29;20604;-76
2022/09/14 06:12:33;;;;;;;6.77;6.20;;;20.20;99.90;;;;;;4902359;29;21241;-75
2022/09/14 06:14:59;;;;;;;6.33;5.80;;;20.20;99.90;;;;;;4933938;29;20681;-75
2022/09/14 06:17:24;;;;;;;6.83;5.27;;;20.20;99.90;;;;;;4935167;29;20193;-75
2022/09/14 06:19:50;;;;;;;5.10;4.63;;;20.20;99.90;;;;;;4917797;29;20584;-75
2022/09/14 06:22:16;;;;;;;4.50;4.10;;;20.20;99.90;;;;;;4935006;29;20711;-76
2022/09/14 06:24:42;;;;;;;4.27;3.87;;;20.10;99.90;;;;;;4902594;29;20573;-76
2022/09/14 06:27:09;;;;;;;4.63;4.23;;;20.10;99.90;;;;;;4918034;29;20225;-76
2022/09/14 06:29:34;;;;;;;3.83;3.40;;;20.10;99.90;;;;;;4934670;29;20224;-76
2022/09/14 06:32:00;;;;;;;3.50;2.90;;;20.10;99.90;;;;;;4918391;29;20723;-81
2022/09/14 06:34:26;;;;;;;2.77;2.57;;;20.00;99.90;;;;;;4919337;29;20646;-81
2022/09/14 06:36:52;;;;;;;2.70;2.20;;;20.00;99.90;;;;;;4918784;29;20570;-81
2022/09/14 06:39:18;;;;;;;2.60;2.40;;;20.00;99.90;;;;;;4935287;29;20624;-81
2022/09/14 06:41:43;;;;;;;4.80;2.60;;;19.90;99.90;;;;;;4936117;29;20196;-81
2022/09/14 06:44:17;;;;;;;2.20;2.00;;;19.80;99.90;;;;;;4903452;29;20183;-82
2022/09/14 06:46:44;;;;;;;3.70;2.57;;;19.80;99.90;;;;;;4935978;29;20573;-81
2022/09/14 06:49:12;;;;;;;3.70;2.60;;;19.70;99.90;;;;;;4918490;29;20215;-81
2022/09/14 06:51:43;;;;;;;3.10;2.80;;;19.70;99.90;;;;;;4918408;29;20628;-80
2022/09/14 06:54:11;;;;;;;3.03;2.33;;;19.60;99.90;;;;;;4970481;28;20590;-81
2022/09/14 06:56:39;;;;;;;3.07;2.77;;;19.50;99.90;;;;;;4941312;28;20594;-81
2022/09/14 06:59:06;;;;;;;3.10;2.57;;;19.50;99.90;;;;;;4972701;28;20989;-83
2022/09/14 07:01:32;;;;;;;4.00;2.60;;;19.50;99.90;;;;;;4941145;29;20624;-82
2022/09/14 07:03:59;;;;;;;2.10;1.53;;;19.40;99.90;;;;;;4936932;29;20683;-80
2022/09/14 07:06:27;;;;;;;2.97;2.67;;;19.40;99.90;;;;;;4952735;29;20180;-79
2022/09/14 07:08:54;;;;;;;2.77;2.57;;;19.30;99.90;;;;;;4954498;29;20938;-79
2022/09/14 07:11:26;;;;;;;3.17;2.80;;;19.40;99.90;;;;;;4952279;29;21044;-79
2022/09/14 07:13:56;;;;;;;2.20;1.97;;;19.30;99.90;;;;;;4959456;29;20724;-78
2022/09/14 07:16:22;;;;;;;2.83;2.53;;;19.30;99.90;;;;;;4958204;29;20608;-78
2022/09/14 07:18:54;;;;;;;3.20;2.37;;;19.30;99.90;;;;;;4949283;28;20662;-77
2022/09/14 07:21:21;;;;;;;3.53;2.30;;;19.30;99.90;;;;;;4954310;28;20621;-78
2022/09/14 07:23:47;;;;;;;3.23;2.03;;;19.20;99.90;;;;;;4947960;29;20955;-78
2022/09/14 07:26:38;;;;;;;2.83;2.30;;;19.20;99.90;;;;;;4945620;29;20671;-78
2022/09/14 07:29:06;;;;;;;3.43;2.90;;;19.20;99.90;;;;;;4955782;28;20647;-79
2022/09/14 07:31:40;;;;;;;2.73;2.40;;;19.20;99.90;;;;;;4936914;29;21067;-79
2022/09/14 07:34:06;;;;;;;6.40;2.20;;;19.20;99.90;;;;;;4940198;29;20686;-80
2022/09/14 07:36:34;;;;;;;2.87;2.30;;;19.20;99.90;;;;;;4937104;29;20675;-79
2022/09/14 07:39:02;;;;;;;2.00;1.60;;;19.20;99.90;;;;;;4953051;29;20215;-80
2022/09/14 07:41:31;;;;;;;5.10;1.93;;;19.20;99.90;;;;;;4953252;28;20610;-80
2022/09/14 07:43:59;;;;;;;1.67;1.37;;;19.10;99.90;;;;;;4936183;29;20576;-79
2022/09/14 07:46:26;;;;;;;2.53;2.17;;;19.10;99.90;;;;;;4953525;29;20568;-79
2022/09/14 07:48:57;;;;;;;3.00;2.00;;;19.10;99.90;;;;;;4952937;29;20571;-79
2022/09/14 07:51:23;;;;;;;2.63;1.90;;;19.20;99.90;;;;;;4953199;28;20687;-79
2022/09/14 07:53:49;;;;;;;2.33;1.70;;;19.20;99.90;;;;;;4935990;29;20631;-80
2022/09/14 07:56:15;;;;;;;2.43;2.10;;;19.20;99.90;;;;;;4936106;29;20651;-79
2022/09/14 07:58:42;;;;;;;2.67;2.47;;;19.20;99.90;;;;;;4935920;29;20623;-79
2022/09/14 08:01:13;;;;;;;2.30;2.10;;;19.20;99.90;;;;;;4935642;29;20192;-80
2022/09/14 08:03:42;;;;;;;3.83;2.73;;;19.20;99.90;;;;;;4952707;29;20599;-80
2022/09/14 08:06:13;;;;;;;3.07;2.73;;;19.20;99.90;;;;;;4953477;29;20576;-80
2022/09/14 08:08:42;;;;;;;2.70;2.50;;;19.20;99.90;;;;;;4957904;28;20598;-77
2022/09/14 08:11:12;;;;;;;3.23;2.93;;;19.30;99.90;;;;;;4954779;29;20612;-78
2022/09/14 08:13:40;;;;;;;3.40;3.10;;;19.30;99.90;;;;;;4953945;29;20571;-78
2022/09/14 08:16:06;;;;;;;4.53;3.77;;;19.30;99.90;;;;;;4954031;29;20587;-78
2022/09/14 08:18:34;;;;;;;2.80;2.50;;;19.30;99.90;;;;;;4937289;29;20632;-77
2022/09/14 08:21:17;;;;;;;3.70;3.10;;;19.30;99.90;;;;;;4953319;29;20627;-78
2022/09/14 08:23:43;;;;;;;3.53;3.20;;;19.30;99.90;;;;;;4926483;29;20597;-78
2022/09/14 08:26:18;;;;;;;5.00;2.40;;;19.40;99.90;;;;;;4938356;29;20572;-78
2022/09/14 08:28:44;;;;;;;5.07;3.40;;;19.40;99.90;;;;;;4936935;29;20592;-78
2022/09/14 08:31:11;;;;;;;3.60;2.97;;;19.50;99.90;;;;;;4944100;29;20715;-78
2022/09/14 08:33:39;;;;;;;4.17;3.77;;;19.50;99.90;;;;;;4963035;29;20588;-77
2022/09/14 08:36:07;;;;;;;3.20;2.90;;;19.50;99.90;;;;;;4961332;29;20918;-78
2022/09/14 08:38:33;;;;;;;3.47;3.13;;;19.50;99.90;;;;;;4948766;29;20624;-76
2022/09/14 08:41:13;;;;;;;5.50;4.03;;;19.60;99.90;;;;;;4962656;29;20977;-76
2022/09/14 08:43:39;;;;;;;3.73;3.40;;;19.60;99.90;;;;;;4960624;29;20563;-77
2022/09/14 08:46:13;;;;;;;3.33;3.03;;;19.60;99.90;;;;;;4969258;29;20572;-77
2022/09/14 08:48:45;;;;;;;3.60;3.20;;;19.70;99.90;;;;;;4972443;29;20461;-78
2022/09/14 08:51:11;;;;;;;4.00;3.70;;;19.70;99.90;;;;;;4936463;29;20611;-77
2022/09/14 08:53:40;;;;;;;3.73;3.43;;;19.70;99.90;;;;;;4950941;29;20592;-77
2022/09/14 08:56:17;;;;;;;3.80;3.40;;;19.70;99.90;;;;;;4963096;29;20176;-77
2022/09/14 08:59:07;;;;;;;3.73;3.40;;;19.70;99.90;;;;;;4941335;29;20624;-77
2022/09/14 09:02:11;;;;;;;4.20;3.40;;;19.70;99.90;;;;;;4923638;29;20609;-77
2022/09/14 09:05:16;;;;;;;3.87;3.50;;;19.70;99.90;;;;;;4904410;29;20764;-77
2022/09/14 09:07:53;;;;;;;3.57;3.27;;;19.80;99.90;;;;;;4899086;29;20592;-78
2022/09/14 09:10:20;;;;;;;3.73;3.43;;;19.70;99.90;;;;;;4946278;29;20608;-78
2022/09/14 09:12:50;;;;;;;2.47;2.27;;;19.70;99.90;;;;;;4944131;29;20752;-77
2022/09/14 09:15:21;;;;;;;3.43;2.70;;;19.70;99.90;;;;;;4942130;29;20985;-77
2022/09/14 09:17:54;;;;;;;3.40;3.10;;;19.70;99.90;;;;;;4949719;29;20986;-77
2022/09/14 09:20:33;;;;;;;3.80;2.90;;;19.70;99.90;;;;;;4950776;29;20613;-77
2022/09/14 09:23:13;;;;;;;4.27;3.43;;;19.70;99.90;;;;;;4953030;29;21010;-77
2022/09/14 09:26:13;;;;;;;3.57;3.27;;;19.70;99.90;;;;;;4950771;29;20672;-76
2022/09/14 09:28:48;;;;;;;3.43;3.03;;;19.70;99.90;;;;;;4955945;29;21162;-77
2022/09/14 09:31:16;;;;;;;4.13;3.70;;;19.70;99.90;;;;;;4960164;28;20639;-77
2022/09/14 09:34:02;;;;;;;3.80;2.90;;;19.70;99.90;;;;;;4954256;29;20611;-77
2022/09/14 09:36:39;;;;;;;4.77;3.97;;;19.70;99.90;;;;;;4935944;29;20826;-77
2022/09/14 09:39:05;;;;;;;4.20;3.80;;;19.70;99.90;;;;;;4937704;29;20643;-77
2022/09/14 09:41:45;;;;;;;4.70;4.10;;;19.70;99.90;;;;;;4947832;29;20714;-77
2022/09/14 09:44:11;;;;;;;4.43;3.70;;;19.80;99.90;;;;;;4926466;29;20580;-77
2022/09/14 09:46:55;;;;;;;5.67;4.20;;;19.80;99.90;;;;;;4943024;29;20640;-77
2022/09/14 09:49:26;;;;;;;5.60;5.20;;;19.80;99.90;;;;;;4942050;29;20595;-77
2022/09/14 09:51:53;;;;;;;6.00;5.40;;;19.80;99.90;;;;;;4948829;29;20615;-77
2022/09/14 09:54:26;;;;;;;6.23;5.20;;;19.80;99.90;;;;;;4946583;29;21010;-76
2022/09/14 09:57:05;;;;;;;5.70;5.20;;;19.90;99.90;;;;;;4949544;29;20609;-77
2022/09/14 09:59:36;;;;;;;5.67;5.17;;;19.90;99.90;;;;;;4917101;29;20655;-77
2022/09/14 10:02:30;;;;;;;7.30;6.70;;;19.90;99.90;;;;;;4948424;29;21044;-76
2022/09/14 10:05:16;;;;;;;6.70;6.17;;;19.90;99.90;;;;;;4949117;29;20576;-76
2022/09/14 10:07:54;;;;;;;6.73;5.93;;;19.90;99.90;;;;;;4947673;29;20577;-77
2022/09/14 10:10:44;;;;;;;6.93;5.47;;;20.00;99.90;;;;;;4948700;29;20584;-78
2022/09/14 10:13:30;;;;;;;5.80;5.20;;;20.00;99.90;;;;;;4932966;29;21177;-76
2022/09/14 10:16:16;;;;;;;5.57;5.07;;;20.00;99.90;;;;;;4955564;29;20604;-77
2022/09/14 10:18:45;;;;;;;6.87;6.27;;;20.00;99.90;;;;;;4969032;29;20639;-78
2022/09/14 10:21:13;;;;;;;6.13;5.53;;;20.00;99.90;;;;;;4970091;29;20611;-77
2022/09/14 10:23:39;;;;;;;5.43;5.03;;;20.00;99.90;;;;;;4963451;29;20603;-78
2022/09/14 10:26:10;;;;;;;7.23;6.40;;;20.00;99.90;;;;;;4947792;29;20584;-79
2022/09/14 10:28:38;;;;;;;6.10;4.70;;;20.00;99.90;;;;;;4927321;29;20641;-79
2022/09/14 10:31:08;;;;;;;5.77;5.20;;;20.00;99.90;;;;;;4933080;29;20632;-79
2022/09/14 10:33:34;;;;;;;5.00;4.60;;;20.00;99.90;;;;;;4960974;29;20608;-79
2022/09/14 10:36:16;;;;;;;5.90;4.90;;;20.00;99.90;;;;;;4964015;29;20590;-80
2022/09/14 10:38:57;;;;;;;6.40;5.07;;;20.00;99.90;;;;;;4949175;29;20639;-77
2022/09/14 10:41:33;;;;;;;4.10;3.70;;;19.90;99.90;;;;;;4975353;28;20646;-78
2022/09/14 10:44:10;;;;;;;4.13;3.83;;;19.90;99.90;;;;;;4975515;28;20619;-77
2022/09/14 10:46:52;;;;;;;4.17;3.77;;;19.90;99.90;;;;;;4976521;28;20582;-79
2022/09/14 10:49:43;;;;;;;3.33;2.90;;;19.90;99.90;;;;;;4960977;28;20588;-80
2022/09/14 10:52:25;;;;;;;3.63;3.20;;;19.90;99.90;;;;;;4973580;28;20664;-82
2022/09/14 10:54:53;;;;;;;3.67;2.63;;;19.90;99.90;;;;;;4958647;29;20664;-80
2022/09/14 10:57:58;;;;;;;6.13;3.03;;;19.80;99.90;;;;;;4954189;29;20584;-81
2022/09/14 11:00:24;;;;;;;4.97;3.90;;;19.80;99.90;;;;;;4937467;29;20664;-79
2022/09/14 11:03:26;;;;;;;3.10;2.80;;;19.80;99.90;;;;;;4957791;29;20581;-80
2022/09/14 11:06:18;;;;;;;4.27;3.20;;;19.80;99.90;;;;;;4941697;29;20591;-79
2022/09/14 11:08:56;;;;;;;3.50;3.00;;;19.80;99.90;;;;;;4959043;29;20572;-80
2022/09/14 11:11:32;;;;;;;2.70;2.47;;;19.80;99.90;;;;;;4959103;29;20605;-79
2022/09/14 11:13:58;;;;;;;3.17;2.63;;;19.80;99.90;;;;;;4959177;28;20576;-80
2022/09/14 11:16:46;;;;;;;5.23;2.73;;;19.70;99.90;;;;;;4955667;29;20592;-79
2022/09/14 11:19:31;;;;;;;3.37;3.10;;;19.80;99.90;;;;;;4943310;29;20237;-80
2022/09/14 11:22:03;;;;;;;3.20;2.73;;;19.80;99.90;;;;;;4959449;28;20648;-79
2022/09/14 11:24:47;;;;;;;4.47;2.73;;;19.80;99.90;;;;;;4968915;28;20599;-79
2022/09/14 11:27:27;;;;;;;3.80;2.47;;;19.90;99.90;;;;;;4978243;28;20595;-79
2022/09/14 11:30:00;;;;;;;2.60;2.13;;;19.90;99.90;;;;;;4977461;28;20568;-79
2022/09/14 11:32:41;;;;;;;2.60;2.30;;;19.90;99.90;;;;;;4973882;28;20635;-77
2022/09/14 11:35:16;;;;;;;2.83;2.20;;;19.90;99.90;;;;;;4959310;29;21151;-79
2022/09/14 11:38:11;;;;;;;3.80;2.23;;;19.90;99.90;;;;;;4960270;29;20623;-78
2022/09/14 11:40:53;;;;;;;3.80;2.57;;;19.90;99.90;;;;;;4959382;28;20600;-78
2022/09/14 11:43:41;;;;;;;2.80;2.40;;;20.00;99.90;;;;;;4960255;29;20600;-78
2022/09/14 11:46:15;;;;;;;5.80;2.97;;;20.00;99.90;;;;;;4960967;29;20592;-78
2022/09/14 11:48:50;;;;;;;3.53;2.97;;;20.10;99.90;;;;;;4977416;28;20551;-78
2022/09/14 11:51:26;;;;;;;2.70;2.27;;;20.20;99.90;;;;;;4944023;29;20623;-78
2022/09/14 11:53:51;;;;;;;3.70;3.40;;;20.30;99.90;;;;;;4976804;29;20568;-78
2022/09/14 11:56:25;;;;;;;3.50;2.67;;;20.40;99.90;;;;;;4973877;29;20572;-77
2022/09/14 11:58:57;;;;;;;3.80;3.33;;;20.50;99.90;;;;;;4939232;29;20686;-77
2022/09/14 12:01:38;;;;;;;3.23;2.97;;;20.50;99.90;;;;;;4969995;28;20610;-77
2022/09/14 12:04:10;;;;;;;4.23;3.83;;;20.60;99.90;;;;;;4971633;29;20582;-78
2022/09/14 12:06:36;;;;;;;4.73;3.90;;;20.60;99.90;;;;;;4973009;28;20572;-78
2022/09/14 12:09:19;;;;;;;4.83;4.40;;;20.70;99.90;;;;;;4970718;29;20619;-78
2022/09/14 12:12:02;;;;;;;4.37;3.90;;;20.70;99.90;;;;;;4969635;28;20261;-78
2022/09/14 12:14:35;;;;;;;4.43;4.13;;;20.70;99.90;;;;;;4969538;29;20583;-78
2022/09/14 12:17:05;;;;;;;3.70;3.40;;;20.80;99.90;;;;;;4965766;29;20580;-78
2022/09/14 12:19:32;;;;;;;3.87;3.57;;;20.70;99.90;;;;;;4965089;29;21130;-78
2022/09/14 12:22:18;;;;;;;5.30;4.80;;;20.80;99.90;;;;;;4963779;28;20611;-77
2022/09/14 12:24:44;;;;;;;4.50;4.10;;;20.80;99.90;;;;;;4963286;29;20576;-78
2022/09/14 12:27:21;;;;;;;5.50;5.00;;;20.80;99.90;;;;;;4960885;29;20568;-78
2022/09/14 12:29:46;;;;;;;5.30;4.83;;;20.80;99.90;;;;;;4960850;29;20172;-78
2022/09/14 12:32:42;;;;;;;3.60;3.33;;;20.80;99.90;;;;;;4961408;28;20669;-77
2022/09/14 12:35:33;;;;;;;5.20;3.90;;;20.80;99.90;;;;;;4945756;29;20175;-78
2022/09/14 12:38:18;;;;;;;4.00;3.50;;;20.80;99.90;;;;;;4946252;29;20631;-78
2022/09/14 12:40:44;;;;;;;2.87;2.53;;;20.80;99.90;;;;;;4961576;28;20634;-78
2022/09/14 12:43:32;;;;;;;2.63;2.43;;;20.80;99.90;;;;;;4961754;29;20989;-77
2022/09/14 12:46:09;;;;;;;2.67;2.20;;;20.70;99.90;;;;;;4960655;29;20942;-78
2022/09/14 12:48:47;;;;;;;2.27;2.07;;;20.70;99.90;;;;;;4944001;29;20674;-78
2022/09/14 12:51:34;;;;;;;2.37;2.17;;;20.70;99.90;;;;;;4959477;28;20603;-78
2022/09/14 12:54:22;;;;;;;2.93;2.50;;;20.60;99.90;;;;;;4959103;29;20579;-77
2022/09/14 12:57:12;;;;;;;3.57;3.27;;;20.60;99.90;;;;;;4957497;28;20588;-78
2022/09/14 12:59:41;;;;;;;2.37;2.17;;;20.60;99.90;;;;;;4940365;29;20627;-77
2022/09/14 13:02:46;;;;;;;2.90;2.10;;;20.60;99.90;;;;;;4956711;29;21213;-78
2022/09/14 13:05:15;;;;;;;2.47;1.87;;;20.50;99.90;;;;;;4971191;28;20587;-78
2022/09/14 13:07:41;;;;;;;2.77;2.20;;;20.50;99.90;;;;;;4984262;28;20637;-77